Martin, ND (58758)

1:27 PM CST on February 14, 2016 (GMT -0600)
Harvey | | Change Station
CLOSE
Current Station
Airport
Location: Harvey,
Elevation: 1608 ft
Nearby Weather Stations

Elev 1608 ft 47.79 °N, 99.93 °W | Updated 12 minutes ago

Overcast
Overcast
27 °F
Feels Like 18 °F
N
9
Wind Variable Wind from WNW

Today
High -- | Low -- °F
--% Chance of Precip.
Yesterday
High -- | Low -- °F
Precip. -- in
Pressure 29.71 in
Visibility 10.0 miles
Clouds Overcast 1000 ft
Windchill 18 °F
Dew Point 25 °F
Humidity 93%
Rainfall 13.20 in
Snow Depth Not available.
7:48 AM 6:01 PM
Waxing Crescent, 44% visible
METAR K5H4 141915Z AUTO 30008KT 10SM OVC010 M03/M04 A2971 RMK AO2 P0033 PWINO PNO
Pressure 29.71 in
Visibility 10.0 miles
Clouds Overcast 1000 ft
Windchill 18 °F
Dew Point 25 °F
Humidity 93%
Rainfall 13.20 in
Snow Depth Not available.
7:48 AM 6:01 PM
Waxing Crescent, 44% visible
METAR K5H4 141915Z AUTO 30008KT 10SM OVC010 M03/M04 A2971 RMK AO2 P0033 PWINO PNO

10-Day Weather Forecast

Almanac

Astronomy

Feb. 14, 2016 Rise Set
Actual Time
Civil Twilight
Nautical Twilight
Astronomical Twilight
Moon
Length of Visible Light
Length of Day
Tomorrow will be .
, % of the Moon is Illuminated

Today's Extremes

State Highs State Lows

Community

WunderPhotos

Upload Photos

1,892,875 photos uploaded!

WunderBlog® & News

Nearby

Air Quality

  Air Quality AQ Index Pollutant
Not available.

Snow Depth

Station Depth Elevation

Earthquake Activity

City Distance Mag. Time & Date
Minimum magnitude displayed is 2.5.

Coastal Water Temperatures

Place Temperature

Stations

Nearby Weather Stations

Station Location Temp. Windchill Dew Point Humidity Wind Precip. Elev Updated Type
                   

Watches & Warnings

There are currently no watches in effect.